Terminal Aerodrome Forecast
Issued by NWS Grand Forks, ND

Home | Current Version | Previous Version | Graphics & Text | Print | Product List | Glossary On
Versions: 1 2 3 4 5 6 7 8 9 10 11 12 13 14 15 16
026
FTUS43 KFGF 281730
TAFFAR
TAF
KFAR 281730Z 2818/2918 01005KT P6SM BKN025
      TEMPO 2818/2819 BKN015
     FM282000 VRB05KT P6SM SCT025 SCT110
     FM291100 VRB03KT 6SM BR FEW090=

USA.gov is the U.S. government's official web portal to all federal, state and local government web resources and services.